createdAt,value
2019-01-08T00:02:35.028Z,82.49
2019-01-08T00:07:37.048Z,82.54
2019-01-08T00:12:39.135Z,82.85
2019-01-08T00:17:42.210Z,83.28
2019-01-08T00:22:44.167Z,83.10
2019-01-08T00:27:46.061Z,83.10
2019-01-08T00:32:48.301Z,82.26
2019-01-08T00:37:50.193Z,81.69
2019-01-08T00:42:52.124Z,81.95
2019-01-08T00:47:54.233Z,82.08
2019-01-08T00:52:56.144Z,82.40
2019-01-08T00:57:58.259Z,81.67
2019-01-08T01:03:00.185Z,81.25
2019-01-08T01:08:02.082Z,80.98
2019-01-08T01:13:04.703Z,80.98
2019-01-08T01:18:06.927Z,80.50
2019-01-08T01:23:09.060Z,80.09
2019-01-08T01:28:10.973Z,80.66
2019-01-08T01:33:12.896Z,80.39
2019-01-08T01:38:14.855Z,80.97
2019-01-08T01:43:16.815Z,80.74
2019-01-08T01:48:18.853Z,80.29
2019-01-08T01:53:20.909Z,80.44
2019-01-08T01:58:22.816Z,81.25
2019-01-08T02:03:24.733Z,80.21
2019-01-08T02:08:26.633Z,80.27
2019-01-08T02:13:28.585Z,79.81
2019-01-08T02:18:30.509Z,79.74
2019-01-08T02:23:32.442Z,78.79
2019-01-08T02:28:34.353Z,78.45
2019-01-08T02:33:36.286Z,78.38
2019-01-08T02:38:38.345Z,78.15
2019-01-08T02:43:40.393Z,78.32
2019-01-08T02:48:42.313Z,78.17
2019-01-08T02:53:44.191Z,78.41
2019-01-08T02:58:46.209Z,79.17
2019-01-08T03:03:48.145Z,80.27
2019-01-08T03:08:50.265Z,82.09
2019-01-08T03:13:52.229Z,81.09
2019-01-08T03:18:54.130Z,80.05
2019-01-08T03:23:56.052Z,81.61
2019-01-08T03:28:57.962Z,81.53
2019-01-08T03:33:59.855Z,81.98
2019-01-08T03:39:01.961Z,82.36
2019-01-08T03:44:05.245Z,82.78
2019-01-08T03:49:07.282Z,82.91
2019-01-08T03:54:09.366Z,83.33
2019-01-08T03:59:11.398Z,82.83
2019-01-08T04:04:13.293Z,83.04
2019-01-08T04:09:15.588Z,83.24
2019-01-08T04:14:17.523Z,83.24
2019-01-08T04:19:19.485Z,82.85
2019-01-08T04:24:21.906Z,82.39
2019-01-08T04:29:23.861Z,82.73
2019-01-08T04:34:25.803Z,84.84
2019-01-08T04:39:27.723Z,84.84
2019-01-08T04:44:29.835Z,84.49
2019-01-08T04:49:31.837Z,84.12
2019-01-08T04:54:33.740Z,85.38
2019-01-08T04:59:35.676Z,85.81
2019-01-08T05:04:37.933Z,85.64
2019-01-08T05:09:40.104Z,85.02
2019-01-08T05:14:42.815Z,84.81
2019-01-08T05:19:46.007Z,84.20
2019-01-08T05:24:49.170Z,83.69
2019-01-08T05:29:52.085Z,84.14
2019-01-08T05:34:54.061Z,86.23
2019-01-08T05:39:55.993Z,85.56
2019-01-08T05:44:57.949Z,86.73
2019-01-08T05:49:59.875Z,86.43
2019-01-08T05:55:01.791Z,84.89
2019-01-08T06:00:04.394Z,83.48
2019-01-08T06:05:06.403Z,82.56
2019-01-08T06:10:08.809Z,81.75
2019-01-08T06:15:10.814Z,80.43
2019-01-08T06:20:12.743Z,79.30
2019-01-08T06:25:14.665Z,78.58
2019-01-08T06:30:24.546Z,76.34
2019-01-08T06:35:20.565Z,75.22
2019-01-08T06:40:22.500Z,75.15
2019-01-08T06:45:24.540Z,75.86
2019-01-08T06:50:26.441Z,76.43
2019-01-08T06:55:28.368Z,77.47
2019-01-08T07:00:33.385Z,77.20
2019-01-08T07:05:34.114Z,78.33
2019-01-08T07:10:36.046Z,79.13
2019-01-08T07:15:38.025Z,78.57
2019-01-08T07:20:39.892Z,79.88
2019-01-08T07:25:42.217Z,80.72
2019-01-08T07:30:44.504Z,79.93
2019-01-08T07:35:46.545Z,80.75
2019-01-08T07:40:48.477Z,80.78
2019-01-08T07:45:50.495Z,80.77
2019-01-08T07:50:52.420Z,80.44
2019-01-08T07:55:54.376Z,79.76
2019-01-08T08:00:56.327Z,78.80
2019-01-08T08:05:58.247Z,78.10
2019-01-08T08:11:00.183Z,77.38
2019-01-08T08:16:02.247Z,78.41
2019-01-08T08:21:04.257Z,78.60
2019-01-08T08:26:06.281Z,76.37
2019-01-08T08:31:08.239Z,75.45
2019-01-08T08:36:10.187Z,75.35
2019-01-08T08:41:12.221Z,74.88
2019-01-08T08:46:14.321Z,75.54
2019-01-08T08:51:16.226Z,77.38
2019-01-08T08:56:18.253Z,77.12
2019-01-08T09:01:20.259Z,77.15
2019-01-08T09:06:22.200Z,76.76
2019-01-08T09:11:24.129Z,76.91
2019-01-08T09:16:26.064Z,76.31
2019-01-08T09:21:27.966Z,76.80
2019-01-08T09:26:29.901Z,75.42
2019-01-08T09:31:31.875Z,75.80
2019-01-08T09:36:33.919Z,76.22
2019-01-08T09:41:35.848Z,76.58
2019-01-08T09:46:38.147Z,76.57
2019-01-08T09:51:40.076Z,76.16
2019-01-08T09:56:42.005Z,75.85
2019-01-08T10:01:43.956Z,75.71
2019-01-08T10:06:45.864Z,75.16
2019-01-08T10:11:47.890Z,73.89
2019-01-08T10:16:49.879Z,73.66
2019-01-08T10:21:51.783Z,72.13
2019-01-08T10:26:54.073Z,70.23
2019-01-08T10:31:55.973Z,71.34
2019-01-08T10:36:58.021Z,70.32
2019-01-08T10:41:59.939Z,69.13
2019-01-08T10:47:01.882Z,69.73
2019-01-08T10:52:03.887Z,69.75
2019-01-08T10:57:06.666Z,72.93
2019-01-08T11:02:08.570Z,73.61
2019-01-08T11:07:11.716Z,77.15
2019-01-08T11:12:13.974Z,80.40
2019-01-08T11:17:16.037Z,82.76
2019-01-08T11:22:17.944Z,82.64
2019-01-08T11:27:19.978Z,80.96
2019-01-08T11:32:21.876Z,80.93
2019-01-08T11:37:23.837Z,79.90
2019-01-08T11:42:25.779Z,79.14
2019-01-08T11:47:27.780Z,77.57
2019-01-08T11:52:29.677Z,75.54
2019-01-08T11:57:31.716Z,74.81
2019-01-08T12:02:33.643Z,75.62
2019-01-08T12:07:35.700Z,74.85
2019-01-08T12:12:37.713Z,75.21
2019-01-08T12:17:39.689Z,74.19
2019-01-08T12:22:41.710Z,73.77
2019-01-08T12:27:43.650Z,72.12
2019-01-08T12:32:45.565Z,72.95
2019-01-08T12:37:47.480Z,72.62
2019-01-08T12:42:49.443Z,72.90
2019-01-08T12:47:51.387Z,73.55
2019-01-08T12:52:53.290Z,73.24
2019-01-08T12:57:55.231Z,73.65
2019-01-08T13:02:57.141Z,75.18
2019-01-08T13:07:59.066Z,76.48
2019-01-08T13:13:02.197Z,76.45
2019-01-08T13:18:04.224Z,76.16
2019-01-08T13:23:06.134Z,74.78
2019-01-08T13:28:08.196Z,100.00
2019-01-08T13:33:10.201Z,100.00
2019-01-08T13:38:12.161Z,100.00
2019-01-08T13:43:14.129Z,84.71
2019-01-08T13:48:16.062Z,83.47
2019-01-08T13:53:18.066Z,80.19
2019-01-08T13:58:19.978Z,81.00
2019-01-08T14:03:22.527Z,82.50
2019-01-08T14:08:25.575Z,83.69
2019-01-08T14:13:27.485Z,83.96
2019-01-08T14:18:29.436Z,79.58
2019-01-08T14:23:31.549Z,77.21
2019-01-08T14:28:33.553Z,76.50
2019-01-08T14:33:35.571Z,75.82
2019-01-08T14:38:37.741Z,76.21
2019-01-08T14:43:46.380Z,75.44
2019-01-08T14:48:48.341Z,74.34
2019-01-08T14:53:50.299Z,74.27
2019-01-08T14:58:53.546Z,75.10
2019-01-08T15:03:55.443Z,73.90
2019-01-08T15:08:57.618Z,72.86
2019-01-08T15:13:59.572Z,72.21
2019-01-08T15:19:01.530Z,72.62
2019-01-08T15:24:03.422Z,70.99
2019-01-08T15:29:05.333Z,71.52
2019-01-08T15:34:07.394Z,70.61
2019-01-08T15:39:09.318Z,70.34
2019-01-08T15:44:15.428Z,69.89
2019-01-08T15:49:15.126Z,70.43
2019-01-08T15:54:17.027Z,69.73
2019-01-08T15:59:18.957Z,69.80
2019-01-08T16:04:20.889Z,69.02
2019-01-08T16:09:22.796Z,68.57
2019-01-08T16:14:24.824Z,68.12
2019-01-08T16:19:26.929Z,68.21
2019-01-08T16:24:28.827Z,68.85
2019-01-08T16:29:30.971Z,67.80
2019-01-08T16:34:33.326Z,67.57
2019-01-08T16:39:35.273Z,68.14
2019-01-08T16:44:37.206Z,68.09
2019-01-08T16:49:39.159Z,68.42
2019-01-08T16:54:43.005Z,67.21
2019-01-08T16:59:46.022Z,67.11
2019-01-08T17:04:48.024Z,67.31
2019-01-08T17:09:49.945Z,66.57
2019-01-08T17:14:52.311Z,66.66
2019-01-08T17:19:54.427Z,66.96
2019-01-08T17:24:56.280Z,67.60
2019-01-08T17:29:59.211Z,67.09
2019-01-08T17:35:01.307Z,67.75
2019-01-08T17:40:04.725Z,69.38
2019-01-08T17:45:08.063Z,70.67
2019-01-08T17:50:10.170Z,70.61
2019-01-08T17:55:12.164Z,71.48
2019-01-08T18:00:14.382Z,71.48
2019-01-08T18:05:16.335Z,71.57
2019-01-08T18:10:18.644Z,71.25
2019-01-08T18:15:20.556Z,70.58
2019-01-08T18:20:22.613Z,71.51
2019-01-08T18:25:24.527Z,70.71
2019-01-08T18:30:26.462Z,70.41
2019-01-08T18:35:28.653Z,73.27
2019-01-08T18:40:30.826Z,73.27
2019-01-08T18:45:32.747Z,75.19
2019-01-08T18:50:34.684Z,75.70
2019-01-08T18:55:36.594Z,75.70
2019-01-08T19:00:38.537Z,75.57
2019-01-08T19:05:40.473Z,75.29
2019-01-08T19:10:42.621Z,77.05
2019-01-08T19:15:44.541Z,79.10
2019-01-08T19:20:46.494Z,67.62
2019-01-08T19:25:48.408Z,76.80
2019-01-08T19:30:50.334Z,78.63
2019-01-08T19:35:52.298Z,78.75
2019-01-08T19:40:55.744Z,80.18
2019-01-08T19:45:57.674Z,79.28
2019-01-08T19:50:59.572Z,79.43
2019-01-08T19:56:01.585Z,80.46
2019-01-08T20:01:04.610Z,79.10
2019-01-08T20:06:06.662Z,76.57
2019-01-08T20:11:08.581Z,76.13
2019-01-08T20:16:10.526Z,74.74
2019-01-08T20:21:12.569Z,74.62
2019-01-08T20:26:14.469Z,74.77
2019-01-08T20:31:16.383Z,74.60
2019-01-08T20:36:18.497Z,72.52
2019-01-08T20:41:20.474Z,73.10
2019-01-08T20:46:22.446Z,71.04
2019-01-08T20:51:24.345Z,71.73
2019-01-08T20:56:26.316Z,71.35
2019-01-08T21:01:28.428Z,70.28
2019-01-08T21:06:30.446Z,71.12
2019-01-08T21:11:32.390Z,71.20
2019-01-08T21:16:34.304Z,73.97
2019-01-08T21:21:36.200Z,72.09
2019-01-08T21:26:38.190Z,73.13
2019-01-08T21:31:40.096Z,74.85
2019-01-08T21:36:42.123Z,74.18
2019-01-08T21:41:44.685Z,74.87
2019-01-08T21:46:47.761Z,74.01
2019-01-08T21:51:49.672Z,73.68
2019-01-08T21:56:51.619Z,74.37
2019-01-08T22:01:53.546Z,74.72
2019-01-08T22:06:55.665Z,76.07
2019-01-08T22:11:57.609Z,76.23
2019-01-08T22:16:59.955Z,75.55
2019-01-08T22:22:01.908Z,77.48
2019-01-08T22:27:03.839Z,79.81
2019-01-08T22:32:05.880Z,81.72
2019-01-08T22:37:07.780Z,81.23
2019-01-08T22:42:10.994Z,82.45
2019-01-08T22:47:12.951Z,82.59
2019-01-08T22:52:14.839Z,80.92
2019-01-08T22:57:16.753Z,81.25
2019-01-08T23:02:18.868Z,83.57
2019-01-08T23:07:20.785Z,85.07
2019-01-08T23:12:22.819Z,84.68
2019-01-08T23:17:24.793Z,84.07
2019-01-08T23:22:26.802Z,83.49
2019-01-08T23:27:28.722Z,83.11
2019-01-08T23:32:30.846Z,82.09
2019-01-08T23:37:32.784Z,81.33
2019-01-08T23:42:34.922Z,81.19
2019-01-08T23:47:36.882Z,81.57
2019-01-08T23:53:00.493Z,81.74
2019-01-08T23:58:02.640Z,82.51
